Create Tblcommutelog Verified Points Advance Search
| # | Trip ID | Id Commuter | Trip Date | Trip Num | Current Lat | Current Lng | Delta Distance | Current Time | Activity | Activity Confidence | Current Speed | |
|---|---|---|---|---|---|---|---|---|---|---|---|---|
| 73861 | 250903_762844_16460442_0635 | 762844 | (not set) | (not set) | 39.310191767193 | -76.619672413044 | 0.8802 | 2025-09-03 06:57:18 | in_vehicle | 100 | 3.7998337013957 | |
| 73862 | 250903_788528_16489920_0645 | 788528 | (not set) | (not set) | 38.799279 | -77.5500192 | 1.8975 | 2025-09-03 06:49:35 | in_vehicle | 100 | -0.44703925898772 | |
| 73863 | 250903_784923_16478950_0623 | 784923 | (not set) | (not set) | 38.722272220245 | -76.880077297761 | 6.8775 | 2025-09-03 06:49:42 | unknown | 100 | 0.21010845172423 | |
| 73864 | 250903_784692_16513841_0631 | 784692 | (not set) | (not set) | 38.799747460363 | -77.119090732814 | 22.7048 | 2025-09-03 06:49:52 | in_vehicle | 100 | 14.059384695164 | |
| 73865 | 250903_786871_16483549_0633 | 786871 | (not set) | (not set) | 39.344758617821 | -76.691855272024 | 6.9518 | 2025-09-03 06:50:02 | in_vehicle | 100 | 0 | |
| 73866 | 250903_788528_16489920_0645 | 788528 | (not set) | (not set) | 38.8003482 | -77.5349266 | 3.0225 | 2025-09-03 06:50:16 | in_vehicle | 100 | 14.162203724731 | |
| 73867 | 250903_787145_16451911_0640 | 787145 | (not set) | (not set) | 38.786139751517 | -77.283555157499 | 0.6001 | 2025-09-03 06:50:23 | in_vehicle | 100 | -0.44703925898772 | |
| 73868 | 250903_788220_16489920_0642 | 788220 | (not set) | (not set) | 38.800729235785 | -77.529560747823 | 3.441 | 2025-09-03 06:50:30 | in_vehicle | 100 | 13.85374663603 | |
| 73869 | 250903_783292_16499526_0631 | 783292 | (not set) | (not set) | 38.886376296868 | -77.022734136351 | 5.0465 | 2025-09-03 06:50:33 | in_vehicle | 100 | -0.44703925898772 | |
| 73870 | 250903_760008_16460532_0649 | 760008 | (not set) | (not set) | 38.9001157 | -77.0025446 | 0 | 2025-09-03 06:50:42 | on_bicycle | 100 | -0.44703925898772 | |
| 73871 | 250903_786937_16483549_0635 | 786937 | (not set) | (not set) | 39.341777674692 | -76.682541138863 | 6.9376 | 2025-09-03 06:50:53 | unknown | 100 | -0.44703925898772 | |
| 73872 | 250903_784692_16513841_0631 | 784692 | (not set) | (not set) | 38.802195938104 | -77.092939980054 | 24.1528 | 2025-09-03 06:51:04 | in_vehicle | 100 | 15.713429953419 | |
| 73873 | 250903_783292_16499526_0631 | 783292 | (not set) | (not set) | 38.886917426742 | -77.012833090432 | 5.0465 | 2025-09-03 06:51:12 | in_vehicle | 100 | -0.44703925898772 | |
| 73874 | 250903_785232_6438355_0651 | 785232 | (not set) | (not set) | 38.858592443195 | -77.149141183645 | 0 | 2025-09-03 06:51:14 | unknown | 100 | -0.44703925898772 | |
| 73875 | 250903_783292_16499526_0631 | 783292 | (not set) | (not set) | 38.885522823586 | -77.0060501 | 6.2796 | 2025-09-03 06:51:19 | in_vehicle | 100 | -0.44703925898772 | |
| 73876 | 250903_760008_16460532_0648 | 760008 | (not set) | (not set) | 38.8998429 | -77.0020684 | 0.0321 | 2025-09-03 06:51:28 | on_bicycle | 100 | 2.1636700135006 | |
| 73877 | 250903_785777_16506513_0635 | 785777 | (not set) | (not set) | 39.33913354477 | -76.55020831438 | 0 | 2025-09-03 06:51:38 | unknown | 100 | -0.44703925898772 | |
| 73878 | 250903_787617_6461772_0651 | 787617 | (not set) | (not set) | 39.125095568634 | -76.865734923703 | 0 | 2025-09-03 06:51:47 | in_vehicle | 100 | 12.190760592595 | |
| 73879 | 250903_784815_16448780_0636 | 784815 | (not set) | (not set) | 38.941457657384 | -76.880160639675 | 14.1953 | 2025-09-03 06:51:52 | in_vehicle | 100 | 11.596198378142 | |
| 73880 | 250903_113832_16457490_0623 | 113832 | (not set) | (not set) | 39.049014781741 | -77.113430157816 | 8.2731 | 2025-09-03 06:52:04 | in_vehicle | 100 | 4.8146128192978 |